East Kilbride, United Kingdom
Current Conditions -  °F | °C
As of 6:50 PM on Monday 20 Oct 2014 (Local Time) from EGPF Reporting Station
Broken Clouds Broken Clouds  
Wind Chill: 54°   Ceiling: 3100
Heat Index: 54°   Visibility: 6mi
Dew Point: 50°   Wind: 14mph
Humidity: 88%   Direction: 200°SSW
Pressure: 29.62"   Gusts: NA
Location:  55.77°N, 4.18°W
Report Text: EGPF 201750Z AUTO 20012KT 9999 SCT020 BKN031 12/10 Q1003
Loading
Personal Weather Stations






























Interactive Weather Map
Tropical Storm Tracking
New forecast layout! Learn more

10-Day Weather Forecast

Advertisements
Track Severe Weather on mobile